sensor_id;sensor_type;location;lat;lon;timestamp;P1;durP1;ratioP1;P2;durP2;ratioP2
27489;SDS011;14925;51.026;13.752;2023-04-01T00:01:55;5.05;;;1.35;;
27489;SDS011;14925;51.026;13.752;2023-04-01T00:04:21;4.43;;;1.50;;
27489;SDS011;14925;51.026;13.752;2023-04-01T00:06:47;4.00;;;1.20;;
27489;SDS011;14925;51.026;13.752;2023-04-01T00:09:12;4.63;;;1.13;;
27489;SDS011;14925;51.026;13.752;2023-04-01T00:11:38;5.30;;;1.50;;
27489;SDS011;14925;51.026;13.752;2023-04-01T00:14:04;3.13;;;1.15;;
27489;SDS011;14925;51.026;13.752;2023-04-01T00:16:29;5.40;;;1.13;;
27489;SDS011;14925;51.026;13.752;2023-04-01T00:18:55;4.07;;;1.08;;
27489;SDS011;14925;51.026;13.752;2023-04-01T00:21:20;5.82;;;1.10;;
27489;SDS011;14925;51.026;13.752;2023-04-01T00:23:47;9.95;;;1.27;;
27489;SDS011;14925;51.026;13.752;2023-04-01T00:26:12;4.43;;;1.02;;
27489;SDS011;14925;51.026;13.752;2023-04-01T00:28:39;5.78;;;1.25;;
27489;SDS011;14925;51.026;13.752;2023-04-01T00:31:08;3.70;;;0.95;;
27489;SDS011;14925;51.026;13.752;2023-04-01T00:33:35;3.10;;;0.90;;
27489;SDS011;14925;51.026;13.752;2023-04-01T00:36:11;4.38;;;1.08;;
27489;SDS011;14925;51.026;13.752;2023-04-01T00:38:37;4.28;;;1.08;;
27489;SDS011;14925;51.026;13.752;2023-04-01T00:41:03;3.92;;;0.90;;
27489;SDS011;14925;51.026;13.752;2023-04-01T00:43:29;4.38;;;1.10;;
27489;SDS011;14925;51.026;13.752;2023-04-01T00:45:55;6.95;;;1.15;;
27489;SDS011;14925;51.026;13.752;2023-04-01T00:48:26;7.00;;;1.20;;
27489;SDS011;14925;51.026;13.752;2023-04-01T00:51:00;3.20;;;1.40;;
27489;SDS011;14925;51.026;13.752;2023-04-01T00:53:28;4.95;;;1.40;;
27489;SDS011;14925;51.026;13.752;2023-04-01T00:55:57;4.80;;;1.52;;
27489;SDS011;14925;51.026;13.752;2023-04-01T00:58:25;5.20;;;1.45;;
27489;SDS011;14925;51.026;13.752;2023-04-01T01:00:51;5.05;;;1.30;;
27489;SDS011;14925;51.026;13.752;2023-04-01T01:03:17;5.72;;;1.30;;
27489;SDS011;14925;51.026;13.752;2023-04-01T01:11:16;5.20;;;1.05;;
27489;SDS011;14925;51.026;13.752;2023-04-01T01:14:09;4.45;;;1.10;;
27489;SDS011;14925;51.026;13.752;2023-04-01T01:16:45;3.83;;;1.10;;
27489;SDS011;14925;51.026;13.752;2023-04-01T01:19:31;4.70;;;1.10;;
27489;SDS011;14925;51.026;13.752;2023-04-01T01:28:14;4.88;;;0.95;;
27489;SDS011;14925;51.026;13.752;2023-04-01T01:33:35;4.20;;;0.88;;
27489;SDS011;14925;51.026;13.752;2023-04-01T01:36:06;3.67;;;0.80;;
27489;SDS011;14925;51.026;13.752;2023-04-01T01:38:34;5.55;;;1.25;;
27489;SDS011;14925;51.026;13.752;2023-04-01T01:41:01;4.75;;;1.10;;
27489;SDS011;14925;51.026;13.752;2023-04-01T01:43:33;2.25;;;0.82;;
27489;SDS011;14925;51.026;13.752;2023-04-01T01:46:03;3.10;;;1.00;;
27489;SDS011;14925;51.026;13.752;2023-04-01T01:48:32;3.58;;;0.93;;
27489;SDS011;14925;51.026;13.752;2023-04-01T01:50:59;4.03;;;0.98;;
27489;SDS011;14925;51.026;13.752;2023-04-01T01:53:24;5.13;;;1.25;;
27489;SDS011;14925;51.026;13.752;2023-04-01T01:55:50;3.47;;;1.10;;
27489;SDS011;14925;51.026;13.752;2023-04-01T01:58:22;7.70;;;0.80;;
27489;SDS011;14925;51.026;13.752;2023-04-01T02:00:53;3.92;;;0.90;;
27489;SDS011;14925;51.026;13.752;2023-04-01T02:03:21;5.35;;;0.90;;
27489;SDS011;14925;51.026;13.752;2023-04-01T02:05:48;3.42;;;1.05;;
27489;SDS011;14925;51.026;13.752;2023-04-01T02:08:16;5.50;;;1.30;;
27489;SDS011;14925;51.026;13.752;2023-04-01T02:11:07;4.55;;;1.05;;
27489;SDS011;14925;51.026;13.752;2023-04-01T02:13:41;4.93;;;1.10;;
27489;SDS011;14925;51.026;13.752;2023-04-01T02:16:13;4.75;;;1.00;;
27489;SDS011;14925;51.026;13.752;2023-04-01T02:18:41;4.45;;;1.00;;
27489;SDS011;14925;51.026;13.752;2023-04-01T02:21:08;5.25;;;1.00;;
27489;SDS011;14925;51.026;13.752;2023-04-01T02:23:35;6.75;;;1.05;;
27489;SDS011;14925;51.026;13.752;2023-04-01T02:26:01;5.45;;;1.33;;
27489;SDS011;14925;51.026;13.752;2023-04-01T02:28:28;6.60;;;1.20;;
27489;SDS011;14925;51.026;13.752;2023-04-01T02:30:54;5.75;;;1.05;;
27489;SDS011;14925;51.026;13.752;2023-04-01T02:33:20;3.42;;;1.20;;
27489;SDS011;14925;51.026;13.752;2023-04-01T02:35:46;7.22;;;1.02;;
27489;SDS011;14925;51.026;13.752;2023-04-01T02:38:11;3.33;;;1.02;;
27489;SDS011;14925;51.026;13.752;2023-04-01T02:40:41;7.78;;;1.52;;
27489;SDS011;14925;51.026;13.752;2023-04-01T02:43:12;6.03;;;1.20;;
27489;SDS011;14925;51.026;13.752;2023-04-01T02:45:37;4.63;;;1.10;;
27489;SDS011;14925;51.026;13.752;2023-04-01T02:48:03;7.07;;;1.30;;
27489;SDS011;14925;51.026;13.752;2023-04-01T02:50:28;4.60;;;1.02;;
27489;SDS011;14925;51.026;13.752;2023-04-01T02:52:54;4.20;;;0.95;;
27489;SDS011;14925;51.026;13.752;2023-04-01T02:55:19;4.43;;;1.17;;
27489;SDS011;14925;51.026;13.752;2023-04-01T02:57:45;4.07;;;1.10;;
27489;SDS011;14925;51.026;13.752;2023-04-01T03:00:10;6.68;;;1.27;;
27489;SDS011;14925;51.026;13.752;2023-04-01T03:02:37;6.15;;;1.83;;
27489;SDS011;14925;51.026;13.752;2023-04-01T03:05:04;4.53;;;1.30;;
27489;SDS011;14925;51.026;13.752;2023-04-01T03:07:30;5.03;;;1.38;;
27489;SDS011;14925;51.026;13.752;2023-04-01T03:09:55;7.40;;;1.63;;
27489;SDS011;14925;51.026;13.752;2023-04-01T03:12:21;6.90;;;1.52;;
27489;SDS011;14925;51.026;13.752;2023-04-01T03:14:46;7.65;;;1.40;;
27489;SDS011;14925;51.026;13.752;2023-04-01T03:17:11;3.88;;;1.20;;
27489;SDS011;14925;51.026;13.752;2023-04-01T03:19:37;4.68;;;1.30;;
27489;SDS011;14925;51.026;13.752;2023-04-01T03:22:02;6.07;;;1.30;;
27489;SDS011;14925;51.026;13.752;2023-04-01T03:24:28;5.70;;;1.63;;
27489;SDS011;14925;51.026;13.752;2023-04-01T03:26:53;6.10;;;1.42;;
27489;SDS011;14925;51.026;13.752;2023-04-01T03:29:18;7.63;;;1.70;;
27489;SDS011;14925;51.026;13.752;2023-04-01T03:31:44;4.97;;;1.40;;
27489;SDS011;14925;51.026;13.752;2023-04-01T03:34:09;7.00;;;1.13;;
27489;SDS011;14925;51.026;13.752;2023-04-01T03:36:35;5.30;;;1.30;;
27489;SDS011;14925;51.026;13.752;2023-04-01T03:39:00;7.93;;;1.42;;
27489;SDS011;14925;51.026;13.752;2023-04-01T03:41:26;4.90;;;1.40;;
27489;SDS011;14925;51.026;13.752;2023-04-01T03:43:52;6.35;;;1.40;;
27489;SDS011;14925;51.026;13.752;2023-04-01T03:46:19;3.40;;;1.00;;
27489;SDS011;14925;51.026;13.752;2023-04-01T03:48:45;5.80;;;1.30;;
27489;SDS011;14925;51.026;13.752;2023-04-01T03:51:10;8.95;;;1.50;;
27489;SDS011;14925;51.026;13.752;2023-04-01T03:53:35;7.28;;;1.10;;
27489;SDS011;14925;51.026;13.752;2023-04-01T03:56:05;6.60;;;1.30;;
27489;SDS011;14925;51.026;13.752;2023-04-01T03:58:31;6.00;;;1.20;;
27489;SDS011;14925;51.026;13.752;2023-04-01T04:00:56;7.53;;;1.48;;
27489;SDS011;14925;51.026;13.752;2023-04-01T04:03:21;7.35;;;1.27;;
27489;SDS011;14925;51.026;13.752;2023-04-01T04:05:48;6.88;;;1.40;;
27489;SDS011;14925;51.026;13.752;2023-04-01T04:08:14;5.38;;;1.48;;
27489;SDS011;14925;51.026;13.752;2023-04-01T04:10:40;4.47;;;1.20;;
27489;SDS011;14925;51.026;13.752;2023-04-01T04:13:06;6.53;;;1.27;;
27489;SDS011;14925;51.026;13.752;2023-04-01T04:15:31;5.88;;;1.08;;
27489;SDS011;14925;51.026;13.752;2023-04-01T04:17:57;7.32;;;1.10;;
27489;SDS011;14925;51.026;13.752;2023-04-01T04:20:22;5.53;;;1.10;;
27489;SDS011;14925;51.026;13.752;2023-04-01T04:22:47;6.13;;;1.00;;
27489;SDS011;14925;51.026;13.752;2023-04-01T04:25:13;4.10;;;1.48;;
27489;SDS011;14925;51.026;13.752;2023-04-01T04:27:38;4.60;;;1.08;;
27489;SDS011;14925;51.026;13.752;2023-04-01T04:30:04;3.55;;;0.90;;
27489;SDS011;14925;51.026;13.752;2023-04-01T04:32:31;6.57;;;1.30;;
27489;SDS011;14925;51.026;13.752;2023-04-01T04:34:56;6.97;;;1.17;;
27489;SDS011;14925;51.026;13.752;2023-04-01T04:37:22;6.00;;;1.38;;
27489;SDS011;14925;51.026;13.752;2023-04-01T04:39:50;5.78;;;1.45;;
27489;SDS011;14925;51.026;13.752;2023-04-01T04:42:16;6.03;;;1.10;;
27489;SDS011;14925;51.026;13.752;2023-04-01T04:44:41;7.35;;;1.30;;
27489;SDS011;14925;51.026;13.752;2023-04-01T04:47:07;4.47;;;1.13;;
27489;SDS011;14925;51.026;13.752;2023-04-01T04:49:32;5.53;;;1.20;;
27489;SDS011;14925;51.026;13.752;2023-04-01T04:51:57;4.72;;;1.25;;
27489;SDS011;14925;51.026;13.752;2023-04-01T04:54:23;4.35;;;1.00;;
27489;SDS011;14925;51.026;13.752;2023-04-01T04:56:50;5.25;;;1.10;;
27489;SDS011;14925;51.026;13.752;2023-04-01T04:59:16;5.03;;;1.20;;
27489;SDS011;14925;51.026;13.752;2023-04-01T05:01:44;3.95;;;0.85;;
27489;SDS011;14925;51.026;13.752;2023-04-01T05:04:09;5.90;;;1.08;;
27489;SDS011;14925;51.026;13.752;2023-04-01T05:06:35;8.13;;;1.00;;
27489;SDS011;14925;51.026;13.752;2023-04-01T05:09:00;4.47;;;0.98;;
27489;SDS011;14925;51.026;13.752;2023-04-01T05:11:26;4.25;;;1.00;;
27489;SDS011;14925;51.026;13.752;2023-04-01T05:13:51;5.07;;;0.90;;
27489;SDS011;14925;51.026;13.752;2023-04-01T05:16:17;4.18;;;0.80;;
27489;SDS011;14925;51.026;13.752;2023-04-01T05:18:44;6.07;;;1.02;;
27489;SDS011;14925;51.026;13.752;2023-04-01T05:21:10;3.88;;;0.80;;
27489;SDS011;14925;51.026;13.752;2023-04-01T05:23:37;4.50;;;0.90;;
27489;SDS011;14925;51.026;13.752;2023-04-01T05:26:06;4.32;;;1.13;;
27489;SDS011;14925;51.026;13.752;2023-04-01T05:28:33;5.25;;;1.00;;
27489;SDS011;14925;51.026;13.752;2023-04-01T05:30:59;4.18;;;0.93;;
27489;SDS011;14925;51.026;13.752;2023-04-01T05:33:25;4.35;;;1.00;;
27489;SDS011;14925;51.026;13.752;2023-04-01T05:35:51;5.50;;;0.98;;
27489;SDS011;14925;51.026;13.752;2023-04-01T05:38:16;4.60;;;0.98;;
27489;SDS011;14925;51.026;13.752;2023-04-01T05:40:42;5.70;;;1.08;;
27489;SDS011;14925;51.026;13.752;2023-04-01T05:43:07;2.88;;;0.88;;
27489;SDS011;14925;51.026;13.752;2023-04-01T05:45:33;3.78;;;0.90;;
27489;SDS011;14925;51.026;13.752;2023-04-01T05:47:59;4.40;;;0.80;;
27489;SDS011;14925;51.026;13.752;2023-04-01T05:50:24;4.97;;;1.00;;
27489;SDS011;14925;51.026;13.752;2023-04-01T05:52:50;5.18;;;1.00;;
27489;SDS011;14925;51.026;13.752;2023-04-01T05:55:15;4.28;;;1.10;;
27489;SDS011;14925;51.026;13.752;2023-04-01T05:57:41;3.47;;;0.95;;
27489;SDS011;14925;51.026;13.752;2023-04-01T06:00:08;3.90;;;1.20;;
27489;SDS011;14925;51.026;13.752;2023-04-01T06:02:34;4.43;;;1.00;;
27489;SDS011;14925;51.026;13.752;2023-04-01T06:05:11;3.78;;;1.08;;
27489;SDS011;14925;51.026;13.752;2023-04-01T06:07:40;4.78;;;1.00;;
27489;SDS011;14925;51.026;13.752;2023-04-01T06:10:10;6.10;;;1.42;;
27489;SDS011;14925;51.026;13.752;2023-04-01T06:15:24;4.50;;;1.00;;
27489;SDS011;14925;51.026;13.752;2023-04-01T06:21:07;4.13;;;0.90;;
27489;SDS011;14925;51.026;13.752;2023-04-01T06:24:01;4.68;;;1.00;;
27489;SDS011;14925;51.026;13.752;2023-04-01T06:26:43;4.10;;;1.08;;
27489;SDS011;14925;51.026;13.752;2023-04-01T06:34:47;3.90;;;1.30;;
27489;SDS011;14925;51.026;13.752;2023-04-01T06:45:57;4.53;;;1.17;;
27489;SDS011;14925;51.026;13.752;2023-04-01T06:48:58;5.32;;;1.17;;
27489;SDS011;14925;51.026;13.752;2023-04-01T06:54:24;5.90;;;1.20;;
27489;SDS011;14925;51.026;13.752;2023-04-01T06:57:02;5.22;;;1.20;;
27489;SDS011;14925;51.026;13.752;2023-04-01T06:59:32;5.75;;;1.10;;
27489;SDS011;14925;51.026;13.752;2023-04-01T07:04:46;4.93;;;1.10;;
27489;SDS011;14925;51.026;13.752;2023-04-01T07:09:56;5.80;;;1.13;;
27489;SDS011;14925;51.026;13.752;2023-04-01T07:14:56;3.75;;;0.95;;
27489;SDS011;14925;51.026;13.752;2023-04-01T07:17:25;3.70;;;1.08;;
27489;SDS011;14925;51.026;13.752;2023-04-01T07:22:47;3.92;;;1.08;;
27489;SDS011;14925;51.026;13.752;2023-04-01T07:25:15;4.93;;;0.90;;
27489;SDS011;14925;51.026;13.752;2023-04-01T07:27:50;4.53;;;1.05;;
27489;SDS011;14925;51.026;13.752;2023-04-01T07:30:26;6.53;;;1.02;;
27489;SDS011;14925;51.026;13.752;2023-04-01T07:32:56;3.58;;;0.98;;
27489;SDS011;14925;51.026;13.752;2023-04-01T07:35:40;2.75;;;1.00;;
27489;SDS011;14925;51.026;13.752;2023-04-01T07:38:32;2.20;;;0.65;;
27489;SDS011;14925;51.026;13.752;2023-04-01T07:54:21;5.00;;;0.73;;
27489;SDS011;14925;51.026;13.752;2023-04-01T08:04:46;4.05;;;0.77;;
27489;SDS011;14925;51.026;13.752;2023-04-01T08:10:04;3.90;;;0.93;;
27489;SDS011;14925;51.026;13.752;2023-04-01T08:15:20;3.88;;;0.90;;
27489;SDS011;14925;51.026;13.752;2023-04-01T08:23:33;1.95;;;0.80;;
27489;SDS011;14925;51.026;13.752;2023-04-01T08:34:44;4.38;;;0.90;;
27489;SDS011;14925;51.026;13.752;2023-04-01T08:37:14;2.50;;;0.70;;
27489;SDS011;14925;51.026;13.752;2023-04-01T08:40:02;6.22;;;0.90;;
27489;SDS011;14925;51.026;13.752;2023-04-01T08:42:57;2.45;;;0.90;;
27489;SDS011;14925;51.026;13.752;2023-04-01T08:59:03;2.17;;;0.55;;
27489;SDS011;14925;51.026;13.752;2023-04-01T09:27:28;2.05;;;0.68;;
27489;SDS011;14925;51.026;13.752;2023-04-01T09:32:51;2.90;;;1.00;;
27489;SDS011;14925;51.026;13.752;2023-04-01T09:46:35;2.75;;;0.68;;
27489;SDS011;14925;51.026;13.752;2023-04-01T09:49:07;2.17;;;0.50;;
27489;SDS011;14925;51.026;13.752;2023-04-01T10:05:07;1.65;;;0.90;;
27489;SDS011;14925;51.026;13.752;2023-04-01T10:10:39;3.00;;;0.68;;
27489;SDS011;14925;51.026;13.752;2023-04-01T10:16:44;3.08;;;0.93;;
27489;SDS011;14925;51.026;13.752;2023-04-01T10:19:07;2.58;;;0.60;;
27489;SDS011;14925;51.026;13.752;2023-04-01T10:22:02;2.33;;;0.80;;
27489;SDS011;14925;51.026;13.752;2023-04-01T10:46:59;2.35;;;0.82;;
27489;SDS011;14925;51.026;13.752;2023-04-01T10:54:46;3.20;;;0.70;;
27489;SDS011;14925;51.026;13.752;2023-04-01T11:24:00;1.83;;;0.68;;
27489;SDS011;14925;51.026;13.752;2023-04-01T11:31:36;2.90;;;1.00;;
27489;SDS011;14925;51.026;13.752;2023-04-01T11:34:29;2.35;;;0.50;;
27489;SDS011;14925;51.026;13.752;2023-04-01T11:39:29;1.00;;;0.60;;
27489;SDS011;14925;51.026;13.752;2023-04-01T11:42:15;2.22;;;1.05;;
27489;SDS011;14925;51.026;13.752;2023-04-01T11:44:51;3.78;;;0.70;;
27489;SDS011;14925;51.026;13.752;2023-04-01T11:53:04;2.70;;;0.50;;
27489;SDS011;14925;51.026;13.752;2023-04-01T11:58:46;2.70;;;0.70;;
27489;SDS011;14925;51.026;13.752;2023-04-01T12:02:01;2.03;;;0.60;;
27489;SDS011;14925;51.026;13.752;2023-04-01T12:06:52;2.55;;;0.60;;
27489;SDS011;14925;51.026;13.752;2023-04-01T12:31:06;2.60;;;0.77;;
27489;SDS011;14925;51.026;13.752;2023-04-01T12:36:51;1.90;;;0.60;;
27489;SDS011;14925;51.026;13.752;2023-04-01T13:00:12;1.88;;;0.90;;
27489;SDS011;14925;51.026;13.752;2023-04-01T13:17:01;2.78;;;0.70;;
27489;SDS011;14925;51.026;13.752;2023-04-01T13:19:36;0.85;;;0.50;;
27489;SDS011;14925;51.026;13.752;2023-04-01T13:22:20;1.67;;;0.65;;
27489;SDS011;14925;51.026;13.752;2023-04-01T13:25:17;1.13;;;0.40;;
27489;SDS011;14925;51.026;13.752;2023-04-01T13:27:56;1.58;;;0.40;;
27489;SDS011;14925;51.026;13.752;2023-04-01T13:30:27;0.38;;;0.35;;
27489;SDS011;14925;51.026;13.752;2023-04-01T13:33:16;2.10;;;0.63;;
27489;SDS011;14925;51.026;13.752;2023-04-01T13:35:46;1.42;;;0.50;;
27489;SDS011;14925;51.026;13.752;2023-04-01T13:45:55;1.65;;;0.35;;
27489;SDS011;14925;51.026;13.752;2023-04-01T13:51:33;1.38;;;0.45;;
27489;SDS011;14925;51.026;13.752;2023-04-01T13:54:18;1.70;;;0.40;;
27489;SDS011;14925;51.026;13.752;2023-04-01T13:59:40;1.95;;;0.40;;
27489;SDS011;14925;51.026;13.752;2023-04-01T14:34:40;0.80;;;0.50;;
27489;SDS011;14925;51.026;13.752;2023-04-01T14:37:20;0.82;;;0.43;;
27489;SDS011;14925;51.026;13.752;2023-04-01T14:48:17;1.23;;;0.40;;
27489;SDS011;14925;51.026;13.752;2023-04-01T14:50:49;3.95;;;0.40;;
27489;SDS011;14925;51.026;13.752;2023-04-01T14:55:53;1.23;;;0.60;;
27489;SDS011;14925;51.026;13.752;2023-04-01T14:58:23;0.52;;;0.38;;
27489;SDS011;14925;51.026;13.752;2023-04-01T15:01:15;1.58;;;0.45;;
27489;SDS011;14925;51.026;13.752;2023-04-01T15:11:58;0.43;;;0.30;;
27489;SDS011;14925;51.026;13.752;2023-04-01T15:28:19;0.45;;;0.35;;
27489;SDS011;14925;51.026;13.752;2023-04-01T15:33:42;0.30;;;0.22;;
27489;SDS011;14925;51.026;13.752;2023-04-01T15:39:05;0.60;;;0.30;;
27489;SDS011;14925;51.026;13.752;2023-04-01T15:46:55;0.95;;;0.40;;
27489;SDS011;14925;51.026;13.752;2023-04-01T15:49:26;1.00;;;0.60;;
27489;SDS011;14925;51.026;13.752;2023-04-01T15:52:06;2.45;;;0.50;;
27489;SDS011;14925;51.026;13.752;2023-04-01T16:02:54;3.20;;;0.47;;
27489;SDS011;14925;51.026;13.752;2023-04-01T16:22:13;0.47;;;0.38;;
27489;SDS011;14925;51.026;13.752;2023-04-01T16:32:18;0.98;;;0.52;;
27489;SDS011;14925;51.026;13.752;2023-04-01T16:37:54;0.93;;;0.63;;
27489;SDS011;14925;51.026;13.752;2023-04-01T16:43:04;1.88;;;0.60;;
27489;SDS011;14925;51.026;13.752;2023-04-01T16:45:38;1.02;;;0.80;;
27489;SDS011;14925;51.026;13.752;2023-04-01T16:53:36;1.73;;;0.60;;
27489;SDS011;14925;51.026;13.752;2023-04-01T16:56:10;1.23;;;0.77;;
27489;SDS011;14925;51.026;13.752;2023-04-01T17:12:46;1.20;;;0.90;;
27489;SDS011;14925;51.026;13.752;2023-04-01T17:21:55;1.95;;;1.20;;
27489;SDS011;14925;51.026;13.752;2023-04-01T17:27:34;2.10;;;1.00;;
27489;SDS011;14925;51.026;13.752;2023-04-01T17:33:10;2.22;;;1.35;;
27489;SDS011;14925;51.026;13.752;2023-04-01T17:35:59;2.08;;;1.38;;
27489;SDS011;14925;51.026;13.752;2023-04-01T17:41:11;1.75;;;1.42;;
27489;SDS011;14925;51.026;13.752;2023-04-01T17:46:34;4.10;;;1.98;;
27489;SDS011;14925;51.026;13.752;2023-04-01T17:49:26;3.15;;;1.83;;
27489;SDS011;14925;51.026;13.752;2023-04-01T18:08:30;13.18;;;9.43;;
27489;SDS011;14925;51.026;13.752;2023-04-01T18:13:54;14.25;;;10.40;;
27489;SDS011;14925;51.026;13.752;2023-04-01T18:24:56;18.15;;;12.05;;
27489;SDS011;14925;51.026;13.752;2023-04-01T18:27:36;16.70;;;12.15;;
27489;SDS011;14925;51.026;13.752;2023-04-01T18:30:07;19.02;;;11.80;;
27489;SDS011;14925;51.026;13.752;2023-04-01T18:35:21;14.90;;;11.40;;
27489;SDS011;14925;51.026;13.752;2023-04-01T18:51:34;14.50;;;10.50;;
27489;SDS011;14925;51.026;13.752;2023-04-01T18:57:11;15.02;;;10.48;;
27489;SDS011;14925;51.026;13.752;2023-04-01T18:59:39;16.45;;;10.15;;
27489;SDS011;14925;51.026;13.752;2023-04-01T19:07:47;18.13;;;11.70;;
27489;SDS011;14925;51.026;13.752;2023-04-01T19:10:15;22.00;;;12.85;;
27489;SDS011;14925;51.026;13.752;2023-04-01T19:26:05;20.63;;;11.07;;
27489;SDS011;14925;51.026;13.752;2023-04-01T19:34:37;13.68;;;7.97;;
27489;SDS011;14925;51.026;13.752;2023-04-01T19:37:28;16.00;;;8.85;;
27489;SDS011;14925;51.026;13.752;2023-04-01T19:51:07;13.68;;;7.20;;
27489;SDS011;14925;51.026;13.752;2023-04-01T19:56:22;11.38;;;7.75;;
27489;SDS011;14925;51.026;13.752;2023-04-01T19:59:00;10.48;;;6.63;;
27489;SDS011;14925;51.026;13.752;2023-04-01T20:01:35;11.70;;;7.47;;
27489;SDS011;14925;51.026;13.752;2023-04-01T20:04:10;11.25;;;6.82;;
27489;SDS011;14925;51.026;13.752;2023-04-01T20:12:47;13.18;;;6.80;;
27489;SDS011;14925;51.026;13.752;2023-04-01T20:17:50;9.95;;;6.70;;
27489;SDS011;14925;51.026;13.752;2023-04-01T20:20:21;9.45;;;6.70;;
27489;SDS011;14925;51.026;13.752;2023-04-01T20:22:53;12.00;;;7.13;;
27489;SDS011;14925;51.026;13.752;2023-04-01T20:28:13;9.10;;;5.70;;
27489;SDS011;14925;51.026;13.752;2023-04-01T20:31:03;10.40;;;6.93;;
27489;SDS011;14925;51.026;13.752;2023-04-01T20:47:18;11.35;;;8.20;;
27489;SDS011;14925;51.026;13.752;2023-04-01T20:50:18;10.40;;;7.13;;
27489;SDS011;14925;51.026;13.752;2023-04-01T20:52:49;10.35;;;7.30;;
27489;SDS011;14925;51.026;13.752;2023-04-01T20:58:24;11.35;;;7.55;;
27489;SDS011;14925;51.026;13.752;2023-04-01T21:23:25;16.40;;;12.45;;
27489;SDS011;14925;51.026;13.752;2023-04-01T21:50:45;16.27;;;11.88;;
27489;SDS011;14925;51.026;13.752;2023-04-01T21:56:18;14.13;;;9.18;;
27489;SDS011;14925;51.026;13.752;2023-04-01T22:04:40;3.92;;;2.45;;
27489;SDS011;14925;51.026;13.752;2023-04-01T22:07:20;3.58;;;1.90;;
27489;SDS011;14925;51.026;13.752;2023-04-01T22:22:59;1.52;;;1.42;;
27489;SDS011;14925;51.026;13.752;2023-04-01T22:25:42;1.20;;;1.10;;
27489;SDS011;14925;51.026;13.752;2023-04-01T22:28:24;3.28;;;1.50;;
27489;SDS011;14925;51.026;13.752;2023-04-01T22:31:03;3.13;;;2.35;;
27489;SDS011;14925;51.026;13.752;2023-04-01T22:33:38;4.15;;;2.72;;
27489;SDS011;14925;51.026;13.752;2023-04-01T22:39:01;4.40;;;3.28;;
27489;SDS011;14925;51.026;13.752;2023-04-01T22:45:10;4.00;;;2.90;;
27489;SDS011;14925;51.026;13.752;2023-04-01T22:50:51;6.43;;;3.00;;
27489;SDS011;14925;51.026;13.752;2023-04-01T22:56:15;6.85;;;3.72;;
27489;SDS011;14925;51.026;13.752;2023-04-01T22:58:56;4.85;;;3.47;;
27489;SDS011;14925;51.026;13.752;2023-04-01T23:01:32;8.27;;;3.97;;
27489;SDS011;14925;51.026;13.752;2023-04-01T23:04:04;6.45;;;3.83;;
27489;SDS011;14925;51.026;13.752;2023-04-01T23:06:33;7.00;;;3.40;;
27489;SDS011;14925;51.026;13.752;2023-04-01T23:17:32;5.13;;;4.32;;
27489;SDS011;14925;51.026;13.752;2023-04-01T23:19:52;9.60;;;5.15;;
27489;SDS011;14925;51.026;13.752;2023-04-01T23:27:54;9.35;;;6.25;;
27489;SDS011;14925;51.026;13.752;2023-04-01T23:33:11;7.25;;;6.10;;
27489;SDS011;14925;51.026;13.752;2023-04-01T23:38:40;11.05;;;6.82;;
27489;SDS011;14925;51.026;13.752;2023-04-01T23:41:06;11.30;;;6.03;;
27489;SDS011;14925;51.026;13.752;2023-04-01T23:43:35;7.63;;;5.60;;
27489;SDS011;14925;51.026;13.752;2023-04-01T23:46:02;7.45;;;5.60;;
27489;SDS011;14925;51.026;13.752;2023-04-01T23:48:46;9.20;;;5.80;;
27489;SDS011;14925;51.026;13.752;2023-04-01T23:51:22;6.73;;;4.77;;
27489;SDS011;14925;51.026;13.752;2023-04-01T23:53:59;7.78;;;5.45;;
27489;SDS011;14925;51.026;13.752;2023-04-01T23:56:34;9.73;;;6.70;;
27489;SDS011;14925;51.026;13.752;2023-04-01T23:59:02;10.38;;;6.18;;
